createdAt,value
2017-04-08T00:00:53.496Z,85.72
2017-04-08T00:01:53.477Z,85.35
2017-04-08T00:02:53.458Z,85.53
2017-04-08T00:03:53.442Z,85.53
2017-04-08T00:04:53.423Z,85.25
2017-04-08T00:05:53.433Z,85.44
2017-04-08T00:06:53.385Z,85.35
2017-04-08T00:07:53.370Z,85.16
2017-04-08T00:08:53.346Z,84.97
2017-04-08T00:09:53.327Z,85.06
2017-04-08T00:10:53.308Z,84.97
2017-04-08T00:11:53.290Z,84.97
2017-04-08T00:12:53.273Z,85.06
2017-04-08T00:13:52.951Z,85.16
2017-04-08T00:14:53.233Z,85.06
2017-04-08T00:15:53.212Z,85.06
2017-04-08T00:16:53.195Z,85.35
2017-04-08T00:17:53.179Z,85.06
2017-04-08T00:18:53.155Z,85.25
2017-04-08T00:19:53.136Z,85.35
2017-04-08T00:20:53.117Z,85.44
2017-04-08T00:21:53.098Z,85.35
2017-04-08T00:22:53.079Z,85.25
2017-04-08T00:23:53.058Z,85.16
2017-04-08T00:24:53.039Z,85.16
2017-04-08T00:25:53.023Z,85.06
2017-04-08T00:26:53.002Z,85.35
2017-04-08T00:27:52.981Z,85.16
2017-04-08T00:28:52.963Z,85.06
2017-04-08T00:29:52.946Z,84.88
2017-04-08T00:30:52.927Z,84.88
2017-04-08T00:31:52.909Z,84.97
2017-04-08T00:32:52.889Z,84.88
2017-04-08T00:33:52.869Z,84.69
2017-04-08T00:34:52.851Z,84.78
2017-04-08T00:35:52.833Z,84.97
2017-04-08T00:36:52.812Z,84.88
2017-04-08T00:37:52.795Z,84.88
2017-04-08T00:38:52.775Z,84.88
2017-04-08T00:39:52.755Z,84.88
2017-04-08T00:40:52.734Z,84.5
2017-04-08T00:41:52.721Z,84.69
2017-04-08T00:42:52.698Z,84.59
2017-04-08T00:43:52.678Z,84.41
2017-04-08T00:44:52.660Z,84.59
2017-04-08T00:45:52.641Z,84.41
2017-04-08T00:46:52.620Z,84.88
2017-04-08T00:47:52.603Z,84.78
2017-04-08T00:48:52.585Z,84.22
2017-04-08T00:49:52.563Z,84.22
2017-04-08T00:50:52.547Z,84.41
2017-04-08T00:51:52.525Z,84.5
2017-04-08T00:52:52.509Z,84.5
2017-04-08T00:53:52.489Z,84.41
2017-04-08T00:54:52.472Z,84.31
2017-04-08T00:55:52.448Z,84.5
2017-04-08T00:56:52.431Z,84.59
2017-04-08T00:57:52.432Z,84.59
2017-04-08T00:58:52.392Z,84.31
2017-04-08T00:59:52.383Z,84.5
2017-04-08T01:00:52.354Z,84.69
2017-04-08T01:01:52.340Z,84.41
2017-04-08T01:02:52.322Z,84.5
2017-04-08T01:03:52.301Z,84.22
2017-04-08T01:04:52.282Z,84.12
2017-04-08T01:05:52.259Z,84.03
2017-04-08T01:06:52.243Z,84.31
2017-04-08T01:07:52.223Z,84.22
2017-04-08T01:08:52.209Z,84.22
2017-04-08T01:09:52.188Z,84.12
2017-04-08T01:10:52.184Z,84.31
2017-04-08T01:11:52.147Z,84.31
2017-04-08T01:12:52.134Z,84.5
2017-04-08T01:13:52.122Z,83.74
2017-04-08T01:14:52.092Z,83.65
2017-04-08T01:15:52.075Z,83.84
2017-04-08T01:16:52.057Z,83.93
2017-04-08T01:17:52.039Z,84.03
2017-04-08T01:18:52.019Z,83.93
2017-04-08T01:19:52.000Z,84.12
2017-04-08T01:20:51.979Z,83.93
2017-04-08T01:21:51.963Z,84.12
2017-04-08T01:22:51.944Z,83.93
2017-04-08T01:23:51.931Z,83.93
2017-04-08T01:24:51.910Z,84.03
2017-04-08T01:25:51.890Z,84.12
2017-04-08T01:26:51.879Z,84.12
2017-04-08T01:27:51.849Z,84.22
2017-04-08T01:28:51.833Z,83.55
2017-04-08T01:29:51.820Z,84.03
2017-04-08T01:30:51.796Z,83.93
2017-04-08T01:31:51.780Z,83.84
2017-04-08T01:32:51.460Z,83.74
2017-04-08T01:33:51.740Z,84.03
2017-04-08T01:34:51.724Z,83.84
2017-04-08T01:35:51.703Z,84.03
2017-04-08T01:36:51.387Z,83.93
2017-04-08T01:37:51.672Z,83.93
2017-04-08T01:38:51.651Z,83.93
2017-04-08T01:39:51.631Z,83.93
2017-04-08T01:40:51.611Z,84.03
2017-04-08T01:41:51.593Z,83.93
2017-04-08T01:42:51.583Z,83.84
2017-04-08T01:43:51.561Z,83.65
2017-04-08T01:44:51.540Z,83.84
2017-04-08T01:45:51.521Z,83.74
2017-04-08T01:46:51.505Z,83.84
2017-04-08T01:47:51.485Z,83.55
2017-04-08T01:48:51.470Z,83.84
2017-04-08T01:49:51.450Z,83.36
2017-04-08T01:50:51.437Z,83.74
2017-04-08T01:51:51.412Z,83.84
2017-04-08T01:52:51.445Z,83.65
2017-04-08T01:53:51.380Z,83.65
2017-04-08T01:54:51.359Z,83.74
2017-04-08T01:55:51.345Z,83.55
2017-04-08T01:56:51.324Z,83.74
2017-04-08T01:57:51.306Z,83.46
2017-04-08T01:58:51.287Z,83.55
2017-04-08T01:59:51.269Z,83.46
2017-04-08T02:00:51.249Z,83.65
2017-04-08T02:01:51.231Z,83.65
2017-04-08T02:02:51.222Z,83.74
2017-04-08T02:03:51.195Z,83.65
2017-04-08T02:04:51.175Z,83.55
2017-04-08T02:05:51.159Z,83.55
2017-04-08T02:06:51.143Z,83.36
2017-04-08T02:07:51.126Z,83.36
2017-04-08T02:08:51.101Z,83.46
2017-04-08T02:09:51.086Z,83.46
2017-04-08T02:10:51.068Z,83.36
2017-04-08T02:11:51.052Z,83.55
2017-04-08T02:12:51.028Z,83.27
2017-04-08T02:13:51.015Z,83.27
2017-04-08T02:14:50.996Z,83.46
2017-04-08T02:15:50.980Z,83.17
2017-04-08T02:16:50.955Z,83.27
2017-04-08T02:17:50.943Z,83.27
2017-04-08T02:18:50.922Z,83.17
2017-04-08T02:19:50.904Z,83.55
2017-04-08T02:20:50.884Z,83.36
2017-04-08T02:21:50.867Z,83.55
2017-04-08T02:22:50.849Z,83.65
2017-04-08T02:23:50.838Z,83.17
2017-04-08T02:24:50.814Z,83.27
2017-04-08T02:25:50.795Z,83.46
2017-04-08T02:26:50.775Z,83.36
2017-04-08T02:27:50.758Z,83.55
2017-04-08T02:28:50.742Z,83.65
2017-04-08T02:29:50.719Z,83.46
2017-04-08T02:30:50.700Z,83.55
2017-04-08T02:31:50.685Z,83.27
2017-04-08T02:32:50.665Z,83.27
2017-04-08T02:33:50.648Z,83.17
2017-04-08T02:34:50.626Z,83.17
2017-04-08T02:35:50.608Z,83.17
2017-04-08T02:36:50.590Z,83.36
2017-04-08T02:37:50.569Z,83.36
2017-04-08T02:38:50.551Z,83.36
2017-04-08T02:39:50.534Z,83.27
2017-04-08T02:40:50.515Z,83.36
2017-04-08T02:41:50.499Z,83.27
2017-04-08T02:42:50.176Z,82.99
2017-04-08T02:43:50.458Z,83.17
2017-04-08T02:44:50.440Z,83.17
2017-04-08T02:45:50.422Z,83.27
2017-04-08T02:46:50.403Z,83.55
2017-04-08T02:47:50.389Z,83.55
2017-04-08T02:48:50.369Z,83.55
2017-04-08T02:49:50.348Z,83.17
2017-04-08T02:50:50.331Z,83.46
2017-04-08T02:51:50.314Z,83.27
2017-04-08T02:52:50.293Z,83.36
2017-04-08T02:53:50.276Z,83.27
2017-04-08T02:54:50.259Z,83.17
2017-04-08T02:55:50.246Z,83.27
2017-04-08T02:56:50.228Z,83.36
2017-04-08T02:57:50.208Z,83.46
2017-04-08T02:58:50.191Z,83.08
2017-04-08T02:59:50.171Z,82.7
2017-04-08T03:00:50.152Z,83.27
2017-04-08T03:01:50.137Z,83.36
2017-04-08T03:02:50.120Z,83.17
2017-04-08T03:03:50.100Z,83.17
2017-04-08T03:04:50.084Z,83.17
2017-04-08T03:05:50.077Z,83.27
2017-04-08T03:06:50.051Z,83.27
2017-04-08T03:07:50.033Z,83.65
2017-04-08T03:08:50.017Z,83.36
2017-04-08T03:09:50.000Z,83.17
2017-04-08T03:10:49.979Z,83.27
2017-04-08T03:11:49.962Z,83.17
2017-04-08T03:12:49.945Z,83.08
2017-04-08T03:13:49.932Z,83.46
2017-04-08T03:14:49.908Z,83.36
2017-04-08T03:15:49.893Z,83.55
2017-04-08T03:16:49.876Z,83.17
2017-04-08T03:17:49.863Z,83.17
2017-04-08T03:18:49.839Z,83.36
2017-04-08T03:19:49.822Z,82.99
2017-04-08T03:20:49.804Z,83.17
2017-04-08T03:21:49.793Z,83.17
2017-04-08T03:22:49.776Z,83.36
2017-04-08T03:23:49.756Z,83.27
2017-04-08T03:24:49.738Z,83.36
2017-04-08T03:25:49.721Z,83.46
2017-04-08T03:26:49.705Z,83.36
2017-04-08T03:27:49.684Z,83.17
2017-04-08T03:28:49.671Z,83.17
2017-04-08T03:29:49.655Z,83.46
2017-04-08T03:30:49.637Z,83.36
2017-04-08T03:31:49.620Z,83.65
2017-04-08T03:32:49.599Z,83.36
2017-04-08T03:33:49.580Z,83.27
2017-04-08T03:34:49.562Z,83.36
2017-04-08T03:35:49.546Z,83.27
2017-04-08T03:36:49.529Z,83.55
2017-04-08T03:37:49.508Z,83.36
2017-04-08T03:38:49.496Z,83.55
2017-04-08T03:39:49.473Z,83.55
2017-04-08T03:40:49.459Z,83.55
2017-04-08T03:41:49.442Z,83.65
2017-04-08T03:42:49.423Z,83.74
2017-04-08T03:43:49.407Z,83.93
2017-04-08T03:44:49.389Z,83.93
2017-04-08T03:45:49.371Z,83.89
2017-04-08T03:46:49.354Z,83.61
2017-04-08T03:47:49.336Z,84.08
2017-04-08T03:48:49.320Z,83.93
2017-04-08T03:49:49.305Z,83.84
2017-04-08T03:50:49.286Z,84.22
2017-04-08T03:51:49.267Z,84.55
2017-04-08T03:52:49.251Z,84.45
2017-04-08T03:53:49.239Z,84.27
2017-04-08T03:54:49.218Z,84.36
2017-04-08T03:55:49.196Z,84.17
2017-04-08T03:56:49.184Z,84.55
2017-04-08T03:57:49.167Z,84.64
2017-04-08T03:58:49.148Z,84.83
2017-04-08T03:59:49.131Z,84.92
2017-04-08T04:00:49.115Z,84.74
2017-04-08T04:01:49.100Z,84.83
2017-04-08T04:02:49.081Z,84.83
2017-04-08T04:03:49.066Z,84.36
2017-04-08T04:04:49.043Z,84.59
2017-04-08T04:05:49.025Z,84.78
2017-04-08T04:06:49.012Z,85.06
2017-04-08T04:07:48.992Z,84.88
2017-04-08T04:08:48.978Z,85.35
2017-04-08T04:09:48.958Z,85.44
2017-04-08T04:10:48.939Z,85.06
2017-04-08T04:11:48.924Z,85.35
2017-04-08T04:12:48.905Z,85.82
2017-04-08T04:13:48.889Z,85.82
2017-04-08T04:14:48.871Z,85.44
2017-04-08T04:15:48.853Z,85.72
2017-04-08T04:16:48.834Z,86.01
2017-04-08T04:17:48.820Z,86.29
2017-04-08T04:18:48.801Z,86.29
2017-04-08T04:19:48.788Z,86.01
2017-04-08T04:20:48.767Z,86.29
2017-04-08T04:21:48.753Z,86.19
2017-04-08T04:22:48.738Z,86.38
2017-04-08T04:23:48.720Z,86.67
2017-04-08T04:24:48.702Z,86.72
2017-04-08T04:25:48.686Z,87.05
2017-04-08T04:26:48.666Z,86.91
2017-04-08T04:27:48.651Z,86.72
2017-04-08T04:28:48.639Z,86.76
2017-04-08T04:29:48.616Z,86.67
2017-04-08T04:30:48.594Z,86.86
2017-04-08T04:31:48.611Z,86.48
2017-04-08T04:32:48.560Z,86.86
2017-04-08T04:33:48.543Z,87.05
2017-04-08T04:34:48.526Z,87.43
2017-04-08T04:35:48.509Z,87.19
2017-04-08T04:36:48.494Z,87.43
2017-04-08T04:37:48.476Z,87.43
2017-04-08T04:38:48.461Z,87.24
2017-04-08T04:39:48.442Z,87.43
2017-04-08T04:40:48.426Z,87.33
2017-04-08T04:41:48.404Z,87.8
2017-04-08T04:42:48.389Z,87.9
2017-04-08T04:43:48.369Z,88.18
2017-04-08T04:44:48.354Z,88.37
2017-04-08T04:45:48.335Z,88.37
2017-04-08T04:46:48.321Z,88.28
2017-04-08T04:47:48.302Z,88.46
2017-04-08T04:48:48.282Z,88.56
2017-04-08T04:49:48.264Z,88.56
2017-04-08T04:50:48.249Z,88.46
2017-04-08T04:51:48.232Z,88.75
2017-04-08T04:52:48.218Z,88.65
2017-04-08T04:53:48.198Z,88.56
2017-04-08T04:54:48.177Z,88.56
2017-04-08T04:55:48.164Z,88.93
2017-04-08T04:56:48.144Z,89.31
2017-04-08T04:57:48.131Z,89.07
2017-04-08T04:58:48.110Z,89.54
2017-04-08T04:59:48.092Z,90.02
2017-04-08T05:00:48.071Z,89.54
2017-04-08T05:01:48.061Z,89.92
2017-04-08T05:02:48.041Z,90.4
2017-04-08T05:03:48.025Z,90.3
2017-04-08T05:04:48.010Z,90.96
2017-04-08T05:05:47.993Z,90.59
2017-04-08T05:06:47.974Z,90.87
2017-04-08T05:07:47.956Z,90.87
2017-04-08T05:08:47.939Z,91.06
2017-04-08T05:09:47.931Z,91.63
2017-04-08T05:10:47.918Z,91.34
2017-04-08T05:11:47.888Z,91.72
2017-04-08T05:12:47.877Z,92.19
2017-04-08T05:13:47.860Z,92.19
2017-04-08T05:14:47.843Z,92.57
2017-04-08T05:15:47.525Z,92.14
2017-04-08T05:16:47.812Z,92.52
2017-04-08T05:17:47.795Z,92.52
2017-04-08T05:18:47.776Z,92.9
2017-04-08T05:19:47.762Z,93.56
2017-04-08T05:20:47.750Z,93.09
2017-04-08T05:21:47.734Z,93.09
2017-04-08T05:22:47.718Z,93.37
2017-04-08T05:23:47.702Z,93.75
2017-04-08T05:24:47.683Z,93.28
2017-04-08T05:25:47.671Z,93.94
2017-04-08T05:26:47.655Z,94.03
2017-04-08T05:27:47.642Z,94.22
2017-04-08T05:28:47.627Z,94.6
2017-04-08T05:29:47.620Z,94.89
2017-04-08T05:30:47.594Z,95.36
2017-04-08T05:31:47.578Z,95.83
2017-04-08T05:32:47.563Z,95.92
2017-04-08T05:33:47.545Z,95.54
2017-04-08T05:34:47.534Z,95.92
2017-04-08T05:35:47.515Z,96.11
2017-04-08T05:36:47.500Z,96.83
2017-04-08T05:37:47.486Z,96.45
2017-04-08T05:38:47.476Z,96.45
2017-04-08T05:39:47.456Z,96.64
2017-04-08T05:40:47.444Z,96.73
2017-04-08T05:41:47.426Z,97.11
2017-04-08T05:42:47.416Z,97.49
2017-04-08T05:43:47.402Z,98.19
2017-04-08T05:44:47.385Z,98.38
2017-04-08T05:45:47.391Z,98.1
2017-04-08T05:46:47.352Z,98.19
2017-04-08T05:47:47.339Z,98.38
2017-04-08T05:48:47.325Z,99.14
2017-04-08T05:49:47.309Z,99.23
2017-04-08T05:50:47.291Z,99.23
2017-04-08T05:51:47.275Z,99.99
2017-04-08T05:52:47.263Z,99.61
2017-04-08T05:53:47.247Z,99.8
2017-04-08T05:54:47.228Z,99.42
2017-04-08T05:55:47.209Z,99.52
2017-04-08T05:56:47.196Z,99.71
2017-04-08T05:57:47.184Z,99.47
2017-04-08T05:58:47.166Z,99.76
2017-04-08T05:59:47.147Z,99.85
2017-04-08T06:00:47.136Z,99.57
2017-04-08T06:01:47.120Z,99.62
2017-04-08T06:02:47.106Z,99.62
2017-04-08T06:03:47.088Z,99.9
2017-04-08T06:04:47.074Z,99.99
2017-04-08T06:05:47.059Z,99.85
2017-04-08T06:06:47.043Z,99.99
2017-04-08T06:07:47.029Z,99.99
2017-04-08T06:08:47.017Z,99.99
2017-04-08T06:09:46.996Z,99.99
2017-04-08T06:10:46.984Z,99.99
2017-04-08T06:11:46.970Z,99.99
2017-04-08T06:12:46.957Z,99.99
2017-04-08T06:13:46.944Z,99.99
2017-04-08T06:14:46.944Z,99.99
2017-04-08T06:15:46.911Z,99.99
2017-04-08T06:16:46.902Z,99.99
2017-04-08T06:17:46.884Z,99.99
2017-04-08T06:18:46.874Z,99.99
2017-04-08T06:19:46.857Z,99.99
2017-04-08T06:20:46.838Z,99.99
2017-04-08T06:21:46.827Z,99.99
2017-04-08T06:22:46.818Z,99.99
2017-04-08T06:23:46.797Z,99.99
2017-04-08T06:24:46.784Z,99.99
2017-04-08T06:25:46.771Z,99.99
2017-04-08T06:26:46.758Z,99.99
2017-04-08T06:27:46.742Z,99.48
2017-04-08T06:28:46.734Z,99.99
2017-04-08T06:29:46.717Z,99.99
2017-04-08T06:30:46.705Z,99.48
2017-04-08T06:31:46.693Z,99.67
2017-04-08T06:32:46.677Z,99.77
2017-04-08T06:33:46.663Z,99.86
2017-04-08T06:34:46.654Z,99.82
2017-04-08T06:35:46.638Z,99.91
2017-04-08T06:36:46.626Z,99.99
2017-04-08T06:37:46.612Z,99.99
2017-04-08T06:38:46.298Z,99.99
2017-04-08T06:39:46.587Z,99.99
2017-04-08T06:40:46.578Z,99.99
2017-04-08T06:41:46.563Z,99.99
2017-04-08T06:42:46.551Z,99.99
2017-04-08T06:43:46.542Z,99.99
2017-04-08T06:44:46.526Z,99.99
2017-04-08T06:45:46.518Z,99.99
2017-04-08T06:46:46.502Z,99.99
2017-04-08T06:47:46.491Z,99.99
2017-04-08T06:48:46.478Z,99.99
2017-04-08T06:49:46.468Z,99.99
2017-04-08T06:50:46.456Z,99.99
2017-04-08T06:51:46.440Z,99.99
2017-04-08T06:52:46.426Z,99.99
2017-04-08T06:53:46.419Z,99.99
2017-04-08T06:54:46.403Z,99.99
2017-04-08T06:55:46.393Z,99.99
2017-04-08T06:56:46.379Z,99.99
2017-04-08T06:57:46.407Z,99.99
2017-04-08T06:58:46.358Z,99.99
2017-04-08T06:59:46.347Z,99.99
2017-04-08T07:00:46.337Z,99.99
2017-04-08T07:01:46.322Z,99.99
2017-04-08T07:02:46.313Z,99.99
2017-04-08T07:03:46.297Z,99.99
2017-04-08T07:04:46.293Z,99.99
2017-04-08T07:05:46.273Z,99.99
2017-04-08T07:06:46.265Z,99.99
2017-04-08T07:07:46.291Z,99.99
2017-04-08T07:08:46.245Z,99.99
2017-04-08T07:09:46.233Z,99.99
2017-04-08T07:10:46.218Z,99.99
2017-04-08T07:11:46.210Z,99.99
2017-04-08T07:12:46.196Z,99.99
2017-04-08T07:13:46.189Z,99.99
2017-04-08T07:14:46.176Z,99.99
2017-04-08T07:15:46.199Z,99.99
2017-04-08T07:16:46.158Z,99.99
2017-04-08T07:17:46.140Z,99.99
2017-04-08T07:18:46.132Z,99.99
2017-04-08T07:19:46.120Z,99.99
2017-04-08T07:20:46.108Z,99.99
2017-04-08T07:21:46.100Z,99.99
2017-04-08T07:22:46.090Z,99.99
2017-04-08T07:23:46.078Z,99.99
2017-04-08T07:24:46.064Z,99.99
2017-04-08T07:25:46.057Z,99.99
2017-04-08T07:26:46.048Z,99.99
2017-04-08T07:27:46.036Z,99.99
2017-04-08T07:28:46.025Z,99.99
2017-04-08T07:29:46.021Z,99.99
2017-04-08T07:30:46.002Z,99.99
2017-04-08T07:31:45.991Z,99.99
2017-04-08T07:32:45.982Z,99.99
2017-04-08T07:33:45.973Z,99.99
2017-04-08T07:34:45.962Z,99.99
2017-04-08T07:35:45.950Z,99.99
2017-04-08T07:36:45.949Z,99.99
2017-04-08T07:37:45.931Z,99.99
2017-04-08T07:38:45.918Z,99.99
2017-04-08T07:39:45.913Z,99.99
2017-04-08T07:40:45.900Z,99.99
2017-04-08T07:41:45.887Z,99.99
2017-04-08T07:42:45.881Z,99.99
2017-04-08T07:43:45.869Z,99.99
2017-04-08T07:44:45.859Z,99.99
2017-04-08T07:45:45.852Z,99.99
2017-04-08T07:46:45.842Z,99.99
2017-04-08T07:47:45.836Z,99.99
2017-04-08T07:48:45.828Z,99.99
2017-04-08T07:49:45.818Z,99.99
2017-04-08T07:50:45.800Z,99.99
2017-04-08T07:51:45.789Z,99.99
2017-04-08T07:52:45.781Z,99.99
2017-04-08T07:53:45.775Z,99.99
2017-04-08T07:54:45.767Z,99.99
2017-04-08T07:55:45.750Z,99.99
2017-04-08T07:56:45.746Z,99.99
2017-04-08T07:57:45.735Z,99.99
2017-04-08T07:58:45.722Z,99.99
2017-04-08T07:59:45.712Z,99.99
2017-04-08T08:00:45.706Z,99.99
2017-04-08T08:01:45.695Z,99.99
2017-04-08T08:02:45.684Z,99.99
2017-04-08T08:03:45.675Z,99.99
2017-04-08T08:04:45.668Z,99.99
2017-04-08T08:05:45.657Z,99.99
2017-04-08T08:06:45.648Z,99.99
2017-04-08T08:07:45.639Z,99.99
2017-04-08T08:08:45.628Z,99.99
2017-04-08T08:09:45.618Z,99.99
2017-04-08T08:10:45.608Z,99.99
2017-04-08T08:11:45.599Z,99.99
2017-04-08T08:12:45.591Z,99.99
2017-04-08T08:13:45.585Z,99.99
2017-04-08T08:14:45.571Z,99.99
2017-04-08T08:15:45.572Z,99.99
2017-04-08T08:16:45.559Z,99.99
2017-04-08T08:17:45.548Z,99.99
2017-04-08T08:18:45.543Z,99.99
2017-04-08T08:19:45.539Z,99.99
2017-04-08T08:20:45.529Z,99.99
2017-04-08T08:21:45.521Z,99.99
2017-04-08T08:22:45.514Z,99.99
2017-04-08T08:23:45.505Z,99.99
2017-04-08T08:24:45.497Z,99.99
2017-04-08T08:25:45.491Z,99.99
2017-04-08T08:26:45.486Z,99.99
2017-04-08T08:27:45.483Z,99.99
2017-04-08T08:28:45.475Z,99.99
2017-04-08T08:29:45.469Z,99.99
2017-04-08T08:30:45.460Z,99.99
2017-04-08T08:31:45.455Z,99.99
2017-04-08T08:32:45.451Z,99.99
2017-04-08T08:33:45.442Z,99.99
2017-04-08T08:34:45.440Z,99.99
2017-04-08T08:35:45.435Z,99.99
2017-04-08T08:36:45.421Z,99.99
2017-04-08T08:37:45.420Z,99.99
2017-04-08T08:38:45.417Z,99.99
2017-04-08T08:39:45.407Z,99.99
2017-04-08T08:40:45.401Z,99.99
2017-04-08T08:41:45.394Z,99.99
2017-04-08T08:42:45.391Z,99.99
2017-04-08T08:43:45.391Z,99.99
2017-04-08T08:44:45.378Z,99.99
2017-04-08T08:45:45.370Z,99.99
2017-04-08T08:46:45.360Z,99.99
2017-04-08T08:47:45.360Z,99.99
2017-04-08T08:48:45.360Z,99.99
2017-04-08T08:49:45.346Z,99.99
2017-04-08T08:50:45.334Z,99.99
2017-04-08T08:51:45.331Z,99.99
2017-04-08T08:52:45.325Z,99.99
2017-04-08T08:53:45.317Z,99.99
2017-04-08T08:54:45.311Z,99.99
2017-04-08T08:55:45.306Z,99.99
2017-04-08T08:56:45.297Z,99.99
2017-04-08T08:57:45.293Z,99.99
2017-04-08T08:58:45.285Z,99.99
2017-04-08T08:59:45.282Z,99.99
2017-04-08T09:00:45.299Z,99.99
2017-04-08T09:01:45.269Z,99.99
2017-04-08T09:02:45.263Z,99.99
2017-04-08T09:03:45.262Z,99.99
2017-04-08T09:04:45.256Z,99.99
2017-04-08T09:05:45.246Z,99.99
2017-04-08T09:06:45.243Z,99.99
2017-04-08T09:07:45.242Z,99.99
2017-04-08T09:08:45.234Z,99.99
2017-04-08T09:09:45.233Z,99.99
2017-04-08T09:10:45.226Z,99.99
2017-04-08T09:11:45.221Z,99.99
2017-04-08T09:12:45.225Z,99.99
2017-04-08T09:13:45.220Z,99.99
2017-04-08T09:14:45.208Z,99.99
2017-04-08T09:15:45.204Z,99.99
2017-04-08T09:16:45.195Z,99.99
2017-04-08T09:17:45.191Z,99.85
2017-04-08T09:18:45.188Z,99.99
2017-04-08T09:19:45.181Z,99.95
2017-04-08T09:20:45.178Z,99.75
2017-04-08T09:21:45.172Z,99.99
2017-04-08T09:22:45.170Z,99.95
2017-04-08T09:23:45.164Z,99.99
2017-04-08T09:24:45.157Z,99.89
2017-04-08T09:25:45.153Z,99.99
2017-04-08T09:26:45.152Z,99.99
2017-04-08T09:27:45.143Z,99.94
2017-04-08T09:28:45.147Z,99.99
2017-04-08T09:29:45.130Z,99.37
2017-04-08T09:30:45.123Z,99.41
2017-04-08T09:31:45.116Z,99.22
2017-04-08T09:32:45.112Z,99.27
2017-04-08T09:33:45.146Z,99.8
2017-04-08T09:34:44.800Z,99.46
2017-04-08T09:35:45.097Z,99.13
2017-04-08T09:36:45.098Z,99.42
2017-04-08T09:37:45.086Z,99.52
2017-04-08T09:38:45.080Z,99.66
2017-04-08T09:39:45.072Z,99.47
2017-04-08T09:40:45.065Z,99.37
2017-04-08T09:41:45.060Z,99.23
2017-04-08T09:42:45.059Z,99.43
2017-04-08T09:43:45.048Z,99.47
2017-04-08T09:44:45.044Z,99.61
2017-04-08T09:45:45.037Z,99.61
2017-04-08T09:46:44.738Z,99.18
2017-04-08T09:47:45.027Z,99.52
2017-04-08T09:48:45.027Z,99.57
2017-04-08T09:49:45.018Z,99.33
2017-04-08T09:50:45.012Z,99.57
2017-04-08T09:51:45.009Z,98.75
2017-04-08T09:52:45.002Z,98.47
2017-04-08T09:53:45.001Z,99.09
2017-04-08T09:54:44.997Z,98.71
2017-04-08T09:55:44.988Z,98.75
2017-04-08T09:56:44.988Z,98.37
2017-04-08T09:57:44.982Z,98.52
2017-04-08T09:58:44.982Z,98.75
2017-04-08T09:59:44.983Z,98.33
2017-04-08T10:00:44.969Z,98.43
2017-04-08T10:01:44.964Z,98.57
2017-04-08T10:02:44.964Z,98.66
2017-04-08T10:03:44.654Z,98.47
2017-04-08T10:04:44.954Z,98.04
2017-04-08T10:05:44.951Z,97.71
2017-04-08T10:06:44.947Z,97.71
2017-04-08T10:07:44.941Z,98.14
2017-04-08T10:08:44.973Z,98.04
2017-04-08T10:09:44.934Z,98.14
2017-04-08T10:10:44.926Z,97.47
2017-04-08T10:11:44.925Z,97.33
2017-04-08T10:12:44.921Z,97.37
2017-04-08T10:13:44.916Z,97.47
2017-04-08T10:14:44.915Z,97.42
2017-04-08T10:15:44.911Z,97.13
2017-04-08T10:16:44.908Z,96.51
2017-04-08T10:17:44.899Z,95.65
2017-04-08T10:18:44.896Z,95.98
2017-04-08T10:19:44.894Z,96.98
2017-04-08T10:20:44.890Z,96.98
2017-04-08T10:21:44.886Z,97.03
2017-04-08T10:22:44.882Z,96.98
2017-04-08T10:23:44.879Z,97.08
2017-04-08T10:24:44.874Z,97.23
2017-04-08T10:25:44.873Z,97.04
2017-04-08T10:26:44.870Z,97.08
2017-04-08T10:27:44.863Z,97.23
2017-04-08T10:28:44.861Z,97.18
2017-04-08T10:29:44.859Z,96.94
2017-04-08T10:30:44.851Z,96.37
2017-04-08T10:31:44.852Z,96.47
2017-04-08T10:32:44.842Z,96.89
2017-04-08T10:33:44.844Z,96.56
2017-04-08T10:34:44.840Z,96.99
2017-04-08T10:35:44.833Z,96.27
2017-04-08T10:36:44.831Z,96.03
2017-04-08T10:37:44.826Z,95.7
2017-04-08T10:38:44.827Z,95.7
2017-04-08T10:39:44.821Z,95.51
2017-04-08T10:40:44.816Z,96.13
2017-04-08T10:41:44.511Z,95.84
2017-04-08T10:42:44.809Z,95.61
2017-04-08T10:43:44.802Z,95.84
2017-04-08T10:44:44.799Z,95.61
2017-04-08T10:45:44.793Z,95.31
2017-04-08T10:46:44.790Z,94.98
2017-04-08T10:47:44.785Z,95.36
2017-04-08T10:48:44.781Z,95.12
2017-04-08T10:49:44.776Z,95.31
2017-04-08T10:50:44.770Z,95.27
2017-04-08T10:51:44.767Z,95.22
2017-04-08T10:52:44.767Z,95.12
2017-04-08T10:53:44.757Z,94.64
2017-04-08T10:54:44.753Z,94.84
2017-04-08T10:55:44.748Z,94.79
2017-04-08T10:56:44.747Z,94.59
2017-04-08T10:57:44.743Z,94.55
2017-04-08T10:58:44.735Z,94.21
2017-04-08T10:59:44.432Z,94.31
2017-04-08T11:00:44.728Z,94.4
2017-04-08T11:01:44.722Z,94.21
2017-04-08T11:02:44.716Z,93.69
2017-04-08T11:03:44.714Z,93.98
2017-04-08T11:04:44.712Z,93.63
2017-04-08T11:05:44.908Z,93.78
2017-04-08T11:06:44.703Z,93.16
2017-04-08T11:07:44.697Z,93.31
2017-04-08T11:08:44.391Z,92.59
2017-04-08T11:09:44.686Z,92.45
2017-04-08T11:10:44.886Z,92.26
2017-04-08T11:11:44.880Z,92.26
2017-04-08T11:12:44.677Z,91.98
2017-04-08T11:13:44.670Z,91.36
2017-04-08T11:14:44.668Z,91.79
2017-04-08T11:15:44.662Z,91.31
2017-04-08T11:16:44.656Z,91.31
2017-04-08T11:17:44.652Z,91.6
2017-04-08T11:18:44.645Z,91.36
2017-04-08T11:19:44.648Z,91.93
2017-04-08T11:20:44.637Z,91.78
2017-04-08T11:21:44.633Z,91.93
2017-04-08T11:22:44.632Z,91.36
2017-04-08T11:23:44.629Z,91.45
2017-04-08T11:24:44.626Z,91.36
2017-04-08T11:25:44.619Z,90.73
2017-04-08T11:26:44.614Z,90.74
2017-04-08T11:27:44.609Z,91.22
2017-04-08T11:28:44.611Z,91.5
2017-04-08T11:29:44.609Z,92.16
2017-04-08T11:30:44.594Z,91.74
2017-04-08T11:31:44.590Z,91.78
2017-04-08T11:32:44.886Z,91.92
2017-04-08T11:33:44.584Z,91.87
2017-04-08T11:34:44.576Z,91.82
2017-04-08T11:35:44.572Z,91.96
2017-04-08T11:36:44.578Z,91.67
2017-04-08T11:37:44.564Z,91.77
2017-04-08T11:38:44.558Z,91.91
2017-04-08T11:39:44.555Z,91.67
2017-04-08T11:40:44.552Z,91.62
2017-04-08T11:41:44.542Z,91.05
2017-04-08T11:42:44.538Z,91.24
2017-04-08T11:43:44.752Z,91.19
2017-04-08T11:44:44.532Z,90.99
2017-04-08T11:45:44.527Z,90.52
2017-04-08T11:46:44.522Z,90
2017-04-08T11:47:44.520Z,90.1
2017-04-08T11:48:44.723Z,89.67
2017-04-08T11:49:44.720Z,90.1
2017-04-08T11:50:44.507Z,90.2
2017-04-08T11:51:44.504Z,90.44
2017-04-08T11:52:44.499Z,90.09
2017-04-08T11:53:44.494Z,90.43
2017-04-08T11:54:44.693Z,89.9
2017-04-08T11:55:44.486Z,89.86
2017-04-08T11:56:44.482Z,89.33
2017-04-08T11:57:44.476Z,89.67
2017-04-08T11:58:44.473Z,89.72
2017-04-08T11:59:44.468Z,89.37
2017-04-08T12:00:44.460Z,88.85
2017-04-08T12:01:44.459Z,88.57
2017-04-08T12:02:44.453Z,87.95
2017-04-08T12:03:44.450Z,87.96
2017-04-08T12:04:44.445Z,87.96
2017-04-08T12:05:44.440Z,88.29
2017-04-08T12:06:44.432Z,87.2
2017-04-08T12:07:44.431Z,87.29
2017-04-08T12:08:44.122Z,87.1
2017-04-08T12:09:44.418Z,87.1
2017-04-08T12:10:44.451Z,87.2
2017-04-08T12:11:44.405Z,86.96
2017-04-08T12:12:44.401Z,87.1
2017-04-08T12:13:44.705Z,87.01
2017-04-08T12:14:44.396Z,86.3
2017-04-08T12:15:44.385Z,85.97
2017-04-08T12:16:44.381Z,86.3
2017-04-08T12:17:44.377Z,86.1
2017-04-08T12:18:44.372Z,86.1
2017-04-08T12:19:44.370Z,85.83
2017-04-08T12:20:44.361Z,85.64
2017-04-08T12:21:44.357Z,85.54
2017-04-08T12:22:44.348Z,85.02
2017-04-08T12:23:44.344Z,84.88
2017-04-08T12:24:44.335Z,85.27
2017-04-08T12:25:44.334Z,84.69
2017-04-08T12:26:57.965Z,85.17
2017-04-08T12:27:57.968Z,85.13
2017-04-08T12:28:44.318Z,85.41
2017-04-08T12:29:44.307Z,85.32
2017-04-08T12:30:44.299Z,85.17
2017-04-08T12:31:44.296Z,85.64
2017-04-08T12:32:44.292Z,85.78
2017-04-08T12:33:44.283Z,85.64
2017-04-08T12:34:44.273Z,85.27
2017-04-08T12:35:44.270Z,85.03
2017-04-08T12:36:44.261Z,85.93
2017-04-08T12:37:44.255Z,85.64
2017-04-08T12:38:44.247Z,85.84
2017-04-08T12:39:44.241Z,85.69
2017-04-08T12:40:44.234Z,86.07
2017-04-08T12:41:44.224Z,86.07
2017-04-08T12:42:44.219Z,85.78
2017-04-08T12:43:44.214Z,85.88
2017-04-08T12:44:44.207Z,85.97
2017-04-08T12:45:44.196Z,85.69
2017-04-08T12:46:44.190Z,85.64
2017-04-08T12:47:44.188Z,85.03
2017-04-08T12:48:44.176Z,84.28
2017-04-08T12:49:44.170Z,84.81
2017-04-08T12:50:44.163Z,85
2017-04-08T12:51:44.155Z,85.05
2017-04-08T12:52:44.146Z,85.86
2017-04-08T12:53:44.138Z,85.9
2017-04-08T12:54:44.131Z,86.7